sensor_id;sensor_type;location;lat;lon;timestamp;P1;durP1;ratioP1;P2;durP2;ratioP2
11604;SDS011;5858;43.076;25.626;2022-12-15T00:01:04;4.57;;;3.47;;
11604;SDS011;5858;43.076;25.626;2022-12-15T00:03:49;3.97;;;3.57;;
11604;SDS011;5858;43.076;25.626;2022-12-15T00:06:33;5.47;;;3.50;;
11604;SDS011;5858;43.076;25.626;2022-12-15T00:09:17;3.90;;;3.47;;
11604;SDS011;5858;43.076;25.626;2022-12-15T00:12:04;4.27;;;3.80;;
11604;SDS011;5858;43.076;25.626;2022-12-15T00:14:48;3.87;;;3.40;;
11604;SDS011;5858;43.076;25.626;2022-12-15T00:17:33;4.00;;;3.60;;
11604;SDS011;5858;43.076;25.626;2022-12-15T00:20:17;4.00;;;3.30;;
11604;SDS011;5858;43.076;25.626;2022-12-15T00:23:05;3.67;;;3.37;;
11604;SDS011;5858;43.076;25.626;2022-12-15T00:25:50;3.57;;;3.00;;
11604;SDS011;5858;43.076;25.626;2022-12-15T00:28:36;3.60;;;3.27;;
11604;SDS011;5858;43.076;25.626;2022-12-15T00:31:21;4.73;;;3.67;;
11604;SDS011;5858;43.076;25.626;2022-12-15T00:34:06;3.90;;;3.50;;
11604;SDS011;5858;43.076;25.626;2022-12-15T00:36:50;2.93;;;2.63;;
11604;SDS011;5858;43.076;25.626;2022-12-15T00:39:35;3.20;;;2.90;;
11604;SDS011;5858;43.076;25.626;2022-12-15T00:42:02;3.83;;;3.13;;
11604;SDS011;5858;43.076;25.626;2022-12-15T00:44:31;3.10;;;2.70;;
11604;SDS011;5858;43.076;25.626;2022-12-15T00:46:58;2.63;;;2.43;;
11604;SDS011;5858;43.076;25.626;2022-12-15T00:49:26;2.63;;;2.40;;
11604;SDS011;5858;43.076;25.626;2022-12-15T00:52:12;3.00;;;2.60;;
11604;SDS011;5858;43.076;25.626;2022-12-15T00:54:57;2.67;;;2.47;;
11604;SDS011;5858;43.076;25.626;2022-12-15T00:57:42;3.03;;;2.60;;
11604;SDS011;5858;43.076;25.626;2022-12-15T01:00:29;3.20;;;2.50;;
11604;SDS011;5858;43.076;25.626;2022-12-15T01:03:14;3.37;;;2.90;;
11604;SDS011;5858;43.076;25.626;2022-12-15T01:06:03;6.53;;;5.23;;
11604;SDS011;5858;43.076;25.626;2022-12-15T01:08:48;12.63;;;10.37;;
11604;SDS011;5858;43.076;25.626;2022-12-15T01:11:33;16.53;;;11.40;;
11604;SDS011;5858;43.076;25.626;2022-12-15T01:14:17;16.47;;;11.67;;
11604;SDS011;5858;43.076;25.626;2022-12-15T01:17:03;14.53;;;10.87;;
11604;SDS011;5858;43.076;25.626;2022-12-15T01:19:48;18.37;;;12.30;;
11604;SDS011;5858;43.076;25.626;2022-12-15T01:22:34;15.80;;;10.57;;
11604;SDS011;5858;43.076;25.626;2022-12-15T01:25:02;18.27;;;12.67;;
11604;SDS011;5858;43.076;25.626;2022-12-15T01:27:29;18.27;;;11.33;;
11604;SDS011;5858;43.076;25.626;2022-12-15T01:29:56;15.80;;;12.17;;
11604;SDS011;5858;43.076;25.626;2022-12-15T01:32:25;17.73;;;12.00;;
11604;SDS011;5858;43.076;25.626;2022-12-15T01:34:52;18.00;;;12.33;;
11604;SDS011;5858;43.076;25.626;2022-12-15T01:37:19;17.93;;;12.13;;
11604;SDS011;5858;43.076;25.626;2022-12-15T01:39:46;17.40;;;11.50;;
11604;SDS011;5858;43.076;25.626;2022-12-15T01:42:31;19.10;;;12.43;;
11604;SDS011;5858;43.076;25.626;2022-12-15T01:48:08;17.13;;;12.03;;
11604;SDS011;5858;43.076;25.626;2022-12-15T01:50:39;19.00;;;12.20;;
11604;SDS011;5858;43.076;25.626;2022-12-15T01:53:13;17.10;;;11.90;;
11604;SDS011;5858;43.076;25.626;2022-12-15T01:55:41;20.43;;;13.27;;
11604;SDS011;5858;43.076;25.626;2022-12-15T01:58:11;20.17;;;12.00;;
11604;SDS011;5858;43.076;25.626;2022-12-15T02:00:41;20.03;;;12.57;;
11604;SDS011;5858;43.076;25.626;2022-12-15T02:03:10;20.00;;;13.83;;
11604;SDS011;5858;43.076;25.626;2022-12-15T02:05:38;22.93;;;13.63;;
11604;SDS011;5858;43.076;25.626;2022-12-15T02:08:07;22.57;;;13.73;;
11604;SDS011;5858;43.076;25.626;2022-12-15T02:10:38;19.87;;;13.47;;
11604;SDS011;5858;43.076;25.626;2022-12-15T02:13:14;23.40;;;13.73;;
11604;SDS011;5858;43.076;25.626;2022-12-15T02:15:48;22.10;;;13.93;;
11604;SDS011;5858;43.076;25.626;2022-12-15T02:18:23;21.07;;;13.90;;
11604;SDS011;5858;43.076;25.626;2022-12-15T02:21:00;21.33;;;14.30;;
11604;SDS011;5858;43.076;25.626;2022-12-15T02:32:46;29.63;;;16.60;;
11604;SDS011;5858;43.076;25.626;2022-12-15T02:35:30;24.00;;;15.63;;
11604;SDS011;5858;43.076;25.626;2022-12-15T02:38:06;21.27;;;13.87;;
11604;SDS011;5858;43.076;25.626;2022-12-15T02:40:34;20.13;;;13.87;;
11604;SDS011;5858;43.076;25.626;2022-12-15T02:43:01;19.70;;;14.40;;
11604;SDS011;5858;43.076;25.626;2022-12-15T02:45:33;19.13;;;13.40;;
11604;SDS011;5858;43.076;25.626;2022-12-15T02:48:18;19.83;;;13.97;;
11604;SDS011;5858;43.076;25.626;2022-12-15T02:50:58;21.77;;;15.47;;
11604;SDS011;5858;43.076;25.626;2022-12-15T02:53:40;21.83;;;13.83;;
11604;SDS011;5858;43.076;25.626;2022-12-15T02:56:23;24.17;;;15.50;;
11604;SDS011;5858;43.076;25.626;2022-12-15T02:58:55;22.27;;;14.03;;
11604;SDS011;5858;43.076;25.626;2022-12-15T03:01:31;26.93;;;16.50;;
11604;SDS011;5858;43.076;25.626;2022-12-15T03:04:04;23.57;;;15.03;;
11604;SDS011;5858;43.076;25.626;2022-12-15T03:06:33;55.37;;;24.23;;
11604;SDS011;5858;43.076;25.626;2022-12-15T03:09:01;90.87;;;33.07;;
11604;SDS011;5858;43.076;25.626;2022-12-15T03:11:28;24.97;;;16.10;;
11604;SDS011;5858;43.076;25.626;2022-12-15T03:13:56;31.37;;;18.07;;
11604;SDS011;5858;43.076;25.626;2022-12-15T03:16:23;72.83;;;29.40;;
11604;SDS011;5858;43.076;25.626;2022-12-15T03:18:51;23.57;;;15.37;;
11604;SDS011;5858;43.076;25.626;2022-12-15T03:21:18;20.80;;;13.90;;
11604;SDS011;5858;43.076;25.626;2022-12-15T03:23:45;16.70;;;11.87;;
11604;SDS011;5858;43.076;25.626;2022-12-15T03:26:12;23.13;;;14.20;;
11604;SDS011;5858;43.076;25.626;2022-12-15T03:28:40;21.37;;;14.43;;
11604;SDS011;5858;43.076;25.626;2022-12-15T03:31:08;16.77;;;12.47;;
11604;SDS011;5858;43.076;25.626;2022-12-15T03:33:35;18.10;;;12.43;;
11604;SDS011;5858;43.076;25.626;2022-12-15T03:36:04;16.23;;;11.53;;
11604;SDS011;5858;43.076;25.626;2022-12-15T03:38:31;15.93;;;11.60;;
11604;SDS011;5858;43.076;25.626;2022-12-15T03:40:59;21.23;;;12.57;;
11604;SDS011;5858;43.076;25.626;2022-12-15T03:43:26;16.17;;;11.40;;
11604;SDS011;5858;43.076;25.626;2022-12-15T03:45:53;18.03;;;11.83;;
11604;SDS011;5858;43.076;25.626;2022-12-15T03:48:20;17.87;;;12.33;;
11604;SDS011;5858;43.076;25.626;2022-12-15T03:50:50;16.57;;;12.30;;
11604;SDS011;5858;43.076;25.626;2022-12-15T03:53:18;17.47;;;11.23;;
11604;SDS011;5858;43.076;25.626;2022-12-15T03:55:46;16.47;;;11.43;;
11604;SDS011;5858;43.076;25.626;2022-12-15T03:58:13;16.33;;;11.73;;
11604;SDS011;5858;43.076;25.626;2022-12-15T04:00:40;15.73;;;11.00;;
11604;SDS011;5858;43.076;25.626;2022-12-15T04:03:08;16.37;;;12.40;;
11604;SDS011;5858;43.076;25.626;2022-12-15T04:05:36;20.57;;;12.40;;
11604;SDS011;5858;43.076;25.626;2022-12-15T04:08:03;15.17;;;11.23;;
11604;SDS011;5858;43.076;25.626;2022-12-15T04:10:35;18.87;;;12.60;;
11604;SDS011;5858;43.076;25.626;2022-12-15T04:13:03;19.80;;;12.77;;
11604;SDS011;5858;43.076;25.626;2022-12-15T04:15:32;16.00;;;11.27;;
11604;SDS011;5858;43.076;25.626;2022-12-15T04:18:03;15.03;;;10.27;;
11604;SDS011;5858;43.076;25.626;2022-12-15T04:20:33;15.73;;;11.27;;
11604;SDS011;5858;43.076;25.626;2022-12-15T04:23:00;14.53;;;11.00;;
11604;SDS011;5858;43.076;25.626;2022-12-15T04:25:31;15.53;;;10.30;;
11604;SDS011;5858;43.076;25.626;2022-12-15T04:28:18;15.40;;;10.70;;
11604;SDS011;5858;43.076;25.626;2022-12-15T04:31:05;12.73;;;10.03;;
11604;SDS011;5858;43.076;25.626;2022-12-15T04:33:52;15.27;;;10.40;;
11604;SDS011;5858;43.076;25.626;2022-12-15T04:36:44;13.97;;;9.70;;
11604;SDS011;5858;43.076;25.626;2022-12-15T04:39:30;14.43;;;9.77;;
11604;SDS011;5858;43.076;25.626;2022-12-15T04:42:17;12.70;;;9.60;;
11604;SDS011;5858;43.076;25.626;2022-12-15T04:45:04;14.40;;;10.30;;
11604;SDS011;5858;43.076;25.626;2022-12-15T04:47:50;14.17;;;9.80;;
11604;SDS011;5858;43.076;25.626;2022-12-15T04:50:35;14.70;;;10.80;;
11604;SDS011;5858;43.076;25.626;2022-12-15T04:53:20;13.20;;;9.47;;
11604;SDS011;5858;43.076;25.626;2022-12-15T04:56:08;15.87;;;10.23;;
11604;SDS011;5858;43.076;25.626;2022-12-15T04:58:53;13.23;;;9.67;;
11604;SDS011;5858;43.076;25.626;2022-12-15T05:01:41;15.20;;;10.23;;
11604;SDS011;5858;43.076;25.626;2022-12-15T05:04:25;14.23;;;10.90;;
11604;SDS011;5858;43.076;25.626;2022-12-15T05:07:10;14.87;;;10.47;;
11604;SDS011;5858;43.076;25.626;2022-12-15T05:09:54;15.37;;;10.47;;
11604;SDS011;5858;43.076;25.626;2022-12-15T05:12:39;13.17;;;9.20;;
11604;SDS011;5858;43.076;25.626;2022-12-15T05:15:23;13.77;;;10.37;;
11604;SDS011;5858;43.076;25.626;2022-12-15T05:18:16;16.37;;;12.33;;
11604;SDS011;5858;43.076;25.626;2022-12-15T05:21:00;14.23;;;10.23;;
11604;SDS011;5858;43.076;25.626;2022-12-15T05:23:45;13.20;;;9.33;;
11604;SDS011;5858;43.076;25.626;2022-12-15T05:26:29;14.67;;;10.47;;
11604;SDS011;5858;43.076;25.626;2022-12-15T05:29:14;12.77;;;9.13;;
11604;SDS011;5858;43.076;25.626;2022-12-15T05:31:59;15.97;;;9.63;;
11604;SDS011;5858;43.076;25.626;2022-12-15T05:34:29;14.33;;;10.40;;
11604;SDS011;5858;43.076;25.626;2022-12-15T05:36:58;15.67;;;10.67;;
11604;SDS011;5858;43.076;25.626;2022-12-15T05:39:30;14.63;;;10.10;;
11604;SDS011;5858;43.076;25.626;2022-12-15T05:42:02;12.43;;;9.23;;
11604;SDS011;5858;43.076;25.626;2022-12-15T05:44:29;16.23;;;11.60;;
11604;SDS011;5858;43.076;25.626;2022-12-15T05:46:56;13.33;;;9.80;;
11604;SDS011;5858;43.076;25.626;2022-12-15T05:49:24;14.97;;;9.77;;
11604;SDS011;5858;43.076;25.626;2022-12-15T05:51:52;13.23;;;10.23;;
11604;SDS011;5858;43.076;25.626;2022-12-15T05:54:21;15.33;;;11.63;;
11604;SDS011;5858;43.076;25.626;2022-12-15T05:56:48;15.30;;;10.60;;
11604;SDS011;5858;43.076;25.626;2022-12-15T05:59:20;14.00;;;10.43;;
11604;SDS011;5858;43.076;25.626;2022-12-15T06:01:47;15.83;;;12.43;;
11604;SDS011;5858;43.076;25.626;2022-12-15T06:04:14;18.63;;;13.03;;
11604;SDS011;5858;43.076;25.626;2022-12-15T06:06:42;20.23;;;14.60;;
11604;SDS011;5858;43.076;25.626;2022-12-15T06:09:10;19.70;;;13.77;;
11604;SDS011;5858;43.076;25.626;2022-12-15T06:11:41;19.50;;;12.93;;
11604;SDS011;5858;43.076;25.626;2022-12-15T06:14:10;19.13;;;13.40;;
11604;SDS011;5858;43.076;25.626;2022-12-15T06:16:37;18.60;;;13.13;;
11604;SDS011;5858;43.076;25.626;2022-12-15T06:19:04;16.13;;;12.17;;
11604;SDS011;5858;43.076;25.626;2022-12-15T06:21:35;19.73;;;13.90;;
11604;SDS011;5858;43.076;25.626;2022-12-15T06:24:05;18.87;;;13.53;;
11604;SDS011;5858;43.076;25.626;2022-12-15T06:26:37;22.63;;;16.20;;
11604;SDS011;5858;43.076;25.626;2022-12-15T06:29:06;23.87;;;16.97;;
11604;SDS011;5858;43.076;25.626;2022-12-15T06:31:35;21.87;;;16.63;;
11604;SDS011;5858;43.076;25.626;2022-12-15T06:34:03;24.20;;;15.07;;
11604;SDS011;5858;43.076;25.626;2022-12-15T06:36:33;19.20;;;14.17;;
11604;SDS011;5858;43.076;25.626;2022-12-15T06:39:03;18.83;;;14.00;;
11604;SDS011;5858;43.076;25.626;2022-12-15T06:41:31;17.47;;;12.90;;
11604;SDS011;5858;43.076;25.626;2022-12-15T06:44:00;18.83;;;12.53;;
11604;SDS011;5858;43.076;25.626;2022-12-15T06:46:27;16.27;;;12.17;;
11604;SDS011;5858;43.076;25.626;2022-12-15T06:48:56;16.07;;;12.43;;
11604;SDS011;5858;43.076;25.626;2022-12-15T06:51:24;18.27;;;13.60;;
11604;SDS011;5858;43.076;25.626;2022-12-15T06:53:52;19.77;;;14.87;;
11604;SDS011;5858;43.076;25.626;2022-12-15T06:56:24;18.20;;;13.73;;
11604;SDS011;5858;43.076;25.626;2022-12-15T06:58:53;21.33;;;14.47;;
11604;SDS011;5858;43.076;25.626;2022-12-15T07:01:24;22.27;;;14.93;;
11604;SDS011;5858;43.076;25.626;2022-12-15T07:03:51;25.87;;;17.70;;
11604;SDS011;5858;43.076;25.626;2022-12-15T07:06:18;19.23;;;13.93;;
11604;SDS011;5858;43.076;25.626;2022-12-15T07:08:49;20.80;;;14.63;;
11604;SDS011;5858;43.076;25.626;2022-12-15T07:11:20;20.77;;;15.10;;
11604;SDS011;5858;43.076;25.626;2022-12-15T07:13:48;20.43;;;15.13;;
11604;SDS011;5858;43.076;25.626;2022-12-15T07:16:16;21.00;;;15.77;;
11604;SDS011;5858;43.076;25.626;2022-12-15T07:18:45;17.80;;;13.80;;
11604;SDS011;5858;43.076;25.626;2022-12-15T07:21:12;20.60;;;15.20;;
11604;SDS011;5858;43.076;25.626;2022-12-15T07:23:40;22.90;;;15.47;;
11604;SDS011;5858;43.076;25.626;2022-12-15T07:26:07;21.37;;;14.33;;
11604;SDS011;5858;43.076;25.626;2022-12-15T07:28:38;18.40;;;13.53;;
11604;SDS011;5858;43.076;25.626;2022-12-15T07:31:10;18.00;;;14.87;;
11604;SDS011;5858;43.076;25.626;2022-12-15T07:33:37;19.67;;;13.97;;
11604;SDS011;5858;43.076;25.626;2022-12-15T07:36:06;23.27;;;15.57;;
11604;SDS011;5858;43.076;25.626;2022-12-15T07:38:34;17.77;;;14.00;;
11604;SDS011;5858;43.076;25.626;2022-12-15T07:41:03;21.23;;;14.03;;
11604;SDS011;5858;43.076;25.626;2022-12-15T07:43:32;23.03;;;16.70;;
11604;SDS011;5858;43.076;25.626;2022-12-15T07:46:00;23.13;;;17.70;;
11604;SDS011;5858;43.076;25.626;2022-12-15T07:48:28;23.10;;;16.70;;
11604;SDS011;5858;43.076;25.626;2022-12-15T07:50:56;23.10;;;16.90;;
11604;SDS011;5858;43.076;25.626;2022-12-15T07:53:27;22.13;;;14.80;;
11604;SDS011;5858;43.076;25.626;2022-12-15T07:55:55;13.20;;;9.37;;
11604;SDS011;5858;43.076;25.626;2022-12-15T07:58:24;15.37;;;11.50;;
11604;SDS011;5858;43.076;25.626;2022-12-15T08:00:51;15.43;;;10.80;;
11604;SDS011;5858;43.076;25.626;2022-12-15T08:03:30;19.70;;;11.30;;
11604;SDS011;5858;43.076;25.626;2022-12-15T08:06:02;19.60;;;11.63;;
11604;SDS011;5858;43.076;25.626;2022-12-15T08:08:31;23.13;;;14.80;;
11604;SDS011;5858;43.076;25.626;2022-12-15T08:11:02;17.63;;;12.97;;
11604;SDS011;5858;43.076;25.626;2022-12-15T08:13:37;14.80;;;9.80;;
11604;SDS011;5858;43.076;25.626;2022-12-15T08:16:05;18.87;;;14.03;;
11604;SDS011;5858;43.076;25.626;2022-12-15T08:18:33;26.20;;;17.30;;
11604;SDS011;5858;43.076;25.626;2022-12-15T08:21:01;23.53;;;16.67;;
11604;SDS011;5858;43.076;25.626;2022-12-15T08:23:29;21.27;;;14.93;;
11604;SDS011;5858;43.076;25.626;2022-12-15T08:26:01;25.40;;;15.57;;
11604;SDS011;5858;43.076;25.626;2022-12-15T08:28:30;23.50;;;15.73;;
11604;SDS011;5858;43.076;25.626;2022-12-15T08:31:01;22.00;;;15.90;;
11604;SDS011;5858;43.076;25.626;2022-12-15T08:33:29;22.17;;;15.27;;
11604;SDS011;5858;43.076;25.626;2022-12-15T08:35:56;38.70;;;18.53;;
11604;SDS011;5858;43.076;25.626;2022-12-15T08:38:30;16.73;;;12.13;;
11604;SDS011;5858;43.076;25.626;2022-12-15T08:41:00;16.83;;;11.80;;
11604;SDS011;5858;43.076;25.626;2022-12-15T08:43:34;15.63;;;10.93;;
11604;SDS011;5858;43.076;25.626;2022-12-15T08:46:01;13.13;;;10.90;;
11604;SDS011;5858;43.076;25.626;2022-12-15T08:48:32;13.83;;;11.23;;
11604;SDS011;5858;43.076;25.626;2022-12-15T08:50:59;12.47;;;10.47;;
11604;SDS011;5858;43.076;25.626;2022-12-15T08:53:27;11.87;;;9.57;;
11604;SDS011;5858;43.076;25.626;2022-12-15T08:56:00;10.23;;;8.17;;
11604;SDS011;5858;43.076;25.626;2022-12-15T08:58:29;9.23;;;7.50;;
11604;SDS011;5858;43.076;25.626;2022-12-15T09:01:00;11.07;;;8.20;;
11604;SDS011;5858;43.076;25.626;2022-12-15T09:03:28;9.63;;;7.70;;
11604;SDS011;5858;43.076;25.626;2022-12-15T09:05:55;10.77;;;8.50;;
11604;SDS011;5858;43.076;25.626;2022-12-15T09:08:26;11.67;;;8.17;;
11604;SDS011;5858;43.076;25.626;2022-12-15T09:10:55;12.97;;;9.00;;
11604;SDS011;5858;43.076;25.626;2022-12-15T09:13:23;10.23;;;8.47;;
11604;SDS011;5858;43.076;25.626;2022-12-15T09:15:55;10.67;;;9.13;;
11604;SDS011;5858;43.076;25.626;2022-12-15T09:18:23;9.90;;;8.90;;
11604;SDS011;5858;43.076;25.626;2022-12-15T09:20:50;9.10;;;7.87;;
11604;SDS011;5858;43.076;25.626;2022-12-15T09:23:18;10.90;;;8.87;;
11604;SDS011;5858;43.076;25.626;2022-12-15T09:25:48;7.60;;;6.80;;
11604;SDS011;5858;43.076;25.626;2022-12-15T09:28:15;9.43;;;6.40;;
11604;SDS011;5858;43.076;25.626;2022-12-15T09:30:43;8.20;;;6.90;;
11604;SDS011;5858;43.076;25.626;2022-12-15T09:33:13;9.07;;;7.40;;
11604;SDS011;5858;43.076;25.626;2022-12-15T09:35:40;9.37;;;7.40;;
11604;SDS011;5858;43.076;25.626;2022-12-15T09:38:14;8.47;;;7.10;;
11604;SDS011;5858;43.076;25.626;2022-12-15T09:40:41;8.80;;;6.77;;
11604;SDS011;5858;43.076;25.626;2022-12-15T09:43:08;9.80;;;7.30;;
11604;SDS011;5858;43.076;25.626;2022-12-15T09:45:43;12.83;;;8.70;;
11604;SDS011;5858;43.076;25.626;2022-12-15T09:48:17;11.23;;;8.33;;
11604;SDS011;5858;43.076;25.626;2022-12-15T09:50:49;15.63;;;10.63;;
11604;SDS011;5858;43.076;25.626;2022-12-15T09:53:25;13.90;;;10.33;;
11604;SDS011;5858;43.076;25.626;2022-12-15T09:55:54;12.50;;;9.53;;
11604;SDS011;5858;43.076;25.626;2022-12-15T09:58:30;14.53;;;9.93;;
11604;SDS011;5858;43.076;25.626;2022-12-15T10:01:08;12.73;;;10.43;;
11604;SDS011;5858;43.076;25.626;2022-12-15T10:03:49;14.83;;;11.27;;
11604;SDS011;5858;43.076;25.626;2022-12-15T10:06:24;11.63;;;9.30;;
11604;SDS011;5858;43.076;25.626;2022-12-15T10:08:57;11.47;;;8.13;;
11604;SDS011;5858;43.076;25.626;2022-12-15T10:14:19;13.67;;;10.10;;
11604;SDS011;5858;43.076;25.626;2022-12-15T10:16:57;11.23;;;9.13;;
11604;SDS011;5858;43.076;25.626;2022-12-15T10:19:36;14.10;;;10.97;;
11604;SDS011;5858;43.076;25.626;2022-12-15T10:22:09;14.50;;;11.10;;
11604;SDS011;5858;43.076;25.626;2022-12-15T10:24:38;17.30;;;11.67;;
11604;SDS011;5858;43.076;25.626;2022-12-15T10:27:12;16.27;;;11.40;;
11604;SDS011;5858;43.076;25.626;2022-12-15T10:29:50;17.07;;;11.67;;
11604;SDS011;5858;43.076;25.626;2022-12-15T10:32:28;17.77;;;13.10;;
11604;SDS011;5858;43.076;25.626;2022-12-15T10:35:10;16.17;;;12.40;;
11604;SDS011;5858;43.076;25.626;2022-12-15T10:37:41;14.87;;;11.97;;
11604;SDS011;5858;43.076;25.626;2022-12-15T10:40:11;16.33;;;12.33;;
11604;SDS011;5858;43.076;25.626;2022-12-15T10:43:02;19.67;;;13.63;;
11604;SDS011;5858;43.076;25.626;2022-12-15T10:45:45;17.20;;;12.73;;
11604;SDS011;5858;43.076;25.626;2022-12-15T10:48:17;19.80;;;13.13;;
11604;SDS011;5858;43.076;25.626;2022-12-15T10:50:47;18.30;;;13.60;;
11604;SDS011;5858;43.076;25.626;2022-12-15T10:53:37;18.70;;;13.60;;
11604;SDS011;5858;43.076;25.626;2022-12-15T10:56:08;21.33;;;13.70;;
11604;SDS011;5858;43.076;25.626;2022-12-15T10:58:47;18.40;;;13.73;;
11604;SDS011;5858;43.076;25.626;2022-12-15T11:01:17;15.50;;;12.03;;
11604;SDS011;5858;43.076;25.626;2022-12-15T11:03:48;16.63;;;13.73;;
11604;SDS011;5858;43.076;25.626;2022-12-15T11:06:20;17.30;;;14.13;;
11604;SDS011;5858;43.076;25.626;2022-12-15T11:08:56;17.80;;;13.57;;
11604;SDS011;5858;43.076;25.626;2022-12-15T11:11:33;16.33;;;12.10;;
11604;SDS011;5858;43.076;25.626;2022-12-15T11:14:22;23.23;;;13.97;;
11604;SDS011;5858;43.076;25.626;2022-12-15T11:16:54;18.63;;;14.00;;
11604;SDS011;5858;43.076;25.626;2022-12-15T11:19:34;23.47;;;15.07;;
11604;SDS011;5858;43.076;25.626;2022-12-15T11:22:11;23.27;;;15.47;;
11604;SDS011;5858;43.076;25.626;2022-12-15T11:24:48;19.87;;;14.17;;
11604;SDS011;5858;43.076;25.626;2022-12-15T11:27:25;18.77;;;13.53;;
11604;SDS011;5858;43.076;25.626;2022-12-15T11:30:00;19.20;;;14.93;;
11604;SDS011;5858;43.076;25.626;2022-12-15T11:32:36;20.93;;;14.93;;
11604;SDS011;5858;43.076;25.626;2022-12-15T11:35:10;21.10;;;15.43;;
11604;SDS011;5858;43.076;25.626;2022-12-15T11:37:42;21.80;;;14.47;;
11604;SDS011;5858;43.076;25.626;2022-12-15T11:40:17;17.57;;;13.80;;
11604;SDS011;5858;43.076;25.626;2022-12-15T11:43:04;24.17;;;15.87;;
11604;SDS011;5858;43.076;25.626;2022-12-15T11:45:50;18.27;;;15.50;;
11604;SDS011;5858;43.076;25.626;2022-12-15T11:48:34;17.93;;;14.17;;
11604;SDS011;5858;43.076;25.626;2022-12-15T11:51:10;23.63;;;17.17;;
11604;SDS011;5858;43.076;25.626;2022-12-15T11:56:40;28.00;;;17.13;;
11604;SDS011;5858;43.076;25.626;2022-12-15T11:59:27;26.43;;;15.80;;
11604;SDS011;5858;43.076;25.626;2022-12-15T12:05:13;21.17;;;15.43;;
11604;SDS011;5858;43.076;25.626;2022-12-15T12:07:56;21.83;;;15.47;;
11604;SDS011;5858;43.076;25.626;2022-12-15T12:10:36;24.17;;;15.93;;
11604;SDS011;5858;43.076;25.626;2022-12-15T12:13:13;21.43;;;15.77;;
11604;SDS011;5858;43.076;25.626;2022-12-15T12:15:49;22.80;;;15.80;;
11604;SDS011;5858;43.076;25.626;2022-12-15T12:18:25;18.67;;;14.53;;
11604;SDS011;5858;43.076;25.626;2022-12-15T12:21:04;21.80;;;16.37;;
11604;SDS011;5858;43.076;25.626;2022-12-15T12:23:35;20.17;;;15.70;;
11604;SDS011;5858;43.076;25.626;2022-12-15T12:26:34;21.30;;;15.80;;
11604;SDS011;5858;43.076;25.626;2022-12-15T12:29:31;22.17;;;15.77;;
11604;SDS011;5858;43.076;25.626;2022-12-15T12:32:02;21.83;;;16.10;;
11604;SDS011;5858;43.076;25.626;2022-12-15T12:34:38;21.47;;;15.30;;
11604;SDS011;5858;43.076;25.626;2022-12-15T12:37:19;27.73;;;18.20;;
11604;SDS011;5858;43.076;25.626;2022-12-15T12:39:51;21.33;;;15.67;;
11604;SDS011;5858;43.076;25.626;2022-12-15T12:42:27;25.80;;;16.93;;
11604;SDS011;5858;43.076;25.626;2022-12-15T12:45:04;19.27;;;15.50;;
11604;SDS011;5858;43.076;25.626;2022-12-15T12:47:32;22.87;;;16.00;;
11604;SDS011;5858;43.076;25.626;2022-12-15T12:50:04;25.70;;;17.10;;
11604;SDS011;5858;43.076;25.626;2022-12-15T12:52:46;23.03;;;16.90;;
11604;SDS011;5858;43.076;25.626;2022-12-15T12:55:24;22.87;;;16.53;;
11604;SDS011;5858;43.076;25.626;2022-12-15T12:57:56;25.77;;;18.43;;
11604;SDS011;5858;43.076;25.626;2022-12-15T13:00:24;26.20;;;18.17;;
11604;SDS011;5858;43.076;25.626;2022-12-15T13:02:54;25.90;;;18.50;;
11604;SDS011;5858;43.076;25.626;2022-12-15T13:05:35;25.40;;;18.00;;
11604;SDS011;5858;43.076;25.626;2022-12-15T13:08:16;24.33;;;18.47;;
11604;SDS011;5858;43.076;25.626;2022-12-15T13:14:13;25.83;;;17.87;;
11604;SDS011;5858;43.076;25.626;2022-12-15T13:16:44;28.17;;;18.77;;
11604;SDS011;5858;43.076;25.626;2022-12-15T13:19:15;28.90;;;18.43;;
11604;SDS011;5858;43.076;25.626;2022-12-15T13:22:24;25.30;;;15.80;;
11604;SDS011;5858;43.076;25.626;2022-12-15T13:24:55;31.67;;;17.77;;
11604;SDS011;5858;43.076;25.626;2022-12-15T13:27:23;26.17;;;18.53;;
11604;SDS011;5858;43.076;25.626;2022-12-15T13:30:02;28.13;;;18.93;;
11604;SDS011;5858;43.076;25.626;2022-12-15T13:32:41;25.40;;;17.23;;
11604;SDS011;5858;43.076;25.626;2022-12-15T13:35:20;27.77;;;18.47;;
11604;SDS011;5858;43.076;25.626;2022-12-15T13:37:50;55.17;;;20.13;;
11604;SDS011;5858;43.076;25.626;2022-12-15T13:40:25;27.17;;;18.47;;
11604;SDS011;5858;43.076;25.626;2022-12-15T13:43:01;27.63;;;19.63;;
11604;SDS011;5858;43.076;25.626;2022-12-15T13:45:49;28.80;;;18.87;;
11604;SDS011;5858;43.076;25.626;2022-12-15T13:48:29;26.43;;;18.97;;
11604;SDS011;5858;43.076;25.626;2022-12-15T13:51:00;25.30;;;18.33;;
11604;SDS011;5858;43.076;25.626;2022-12-15T13:53:37;24.70;;;17.60;;
11604;SDS011;5858;43.076;25.626;2022-12-15T13:59:15;31.47;;;22.83;;
11604;SDS011;5858;43.076;25.626;2022-12-15T14:01:51;35.50;;;21.60;;
11604;SDS011;5858;43.076;25.626;2022-12-15T14:04:19;35.80;;;22.47;;
11604;SDS011;5858;43.076;25.626;2022-12-15T14:06:51;33.97;;;21.13;;
11604;SDS011;5858;43.076;25.626;2022-12-15T14:09:21;33.03;;;21.03;;
11604;SDS011;5858;43.076;25.626;2022-12-15T14:11:52;30.33;;;21.00;;
11604;SDS011;5858;43.076;25.626;2022-12-15T14:14:21;31.20;;;20.67;;
11604;SDS011;5858;43.076;25.626;2022-12-15T14:16:53;31.37;;;21.93;;
11604;SDS011;5858;43.076;25.626;2022-12-15T14:19:23;29.83;;;21.30;;
11604;SDS011;5858;43.076;25.626;2022-12-15T14:21:51;32.17;;;21.57;;
11604;SDS011;5858;43.076;25.626;2022-12-15T14:24:20;35.50;;;23.07;;
11604;SDS011;5858;43.076;25.626;2022-12-15T14:26:52;37.60;;;24.37;;
11604;SDS011;5858;43.076;25.626;2022-12-15T14:29:20;35.03;;;23.87;;
11604;SDS011;5858;43.076;25.626;2022-12-15T14:31:51;33.30;;;23.80;;
11604;SDS011;5858;43.076;25.626;2022-12-15T14:34:23;38.33;;;26.40;;
11604;SDS011;5858;43.076;25.626;2022-12-15T14:36:53;39.13;;;25.60;;
11604;SDS011;5858;43.076;25.626;2022-12-15T14:39:23;44.20;;;28.23;;
11604;SDS011;5858;43.076;25.626;2022-12-15T14:41:54;46.53;;;30.13;;
11604;SDS011;5858;43.076;25.626;2022-12-15T14:44:29;47.80;;;28.43;;
11604;SDS011;5858;43.076;25.626;2022-12-15T14:47:00;47.73;;;30.10;;
11604;SDS011;5858;43.076;25.626;2022-12-15T14:49:32;47.27;;;30.90;;
11604;SDS011;5858;43.076;25.626;2022-12-15T14:52:04;47.93;;;29.93;;
11604;SDS011;5858;43.076;25.626;2022-12-15T14:54:34;47.77;;;31.30;;
11604;SDS011;5858;43.076;25.626;2022-12-15T14:57:10;51.03;;;30.97;;
11604;SDS011;5858;43.076;25.626;2022-12-15T14:59:40;50.50;;;30.30;;
11604;SDS011;5858;43.076;25.626;2022-12-15T15:02:11;45.53;;;29.73;;
11604;SDS011;5858;43.076;25.626;2022-12-15T15:04:52;51.37;;;29.70;;
11604;SDS011;5858;43.076;25.626;2022-12-15T15:07:21;45.07;;;29.63;;
11604;SDS011;5858;43.076;25.626;2022-12-15T15:09:49;52.70;;;30.87;;
11604;SDS011;5858;43.076;25.626;2022-12-15T15:12:19;43.97;;;29.17;;
11604;SDS011;5858;43.076;25.626;2022-12-15T15:14:48;44.73;;;28.17;;
11604;SDS011;5858;43.076;25.626;2022-12-15T15:17:21;43.83;;;27.17;;
11604;SDS011;5858;43.076;25.626;2022-12-15T15:19:52;45.40;;;28.30;;
11604;SDS011;5858;43.076;25.626;2022-12-15T15:22:36;46.63;;;28.83;;
11604;SDS011;5858;43.076;25.626;2022-12-15T15:25:27;48.50;;;31.20;;
11604;SDS011;5858;43.076;25.626;2022-12-15T15:28:00;48.57;;;31.30;;
11604;SDS011;5858;43.076;25.626;2022-12-15T15:30:39;54.20;;;34.70;;
11604;SDS011;5858;43.076;25.626;2022-12-15T15:33:09;59.97;;;38.30;;